createdAt,value
2023-03-31T00:02:22.893Z,6.43
2023-03-31T00:05:25.166Z,6.93
2023-03-31T00:08:30.314Z,6.00
2023-03-31T00:11:32.630Z,5.00
2023-03-31T00:14:34.290Z,4.90
2023-03-31T00:17:36.182Z,4.33
2023-03-31T00:20:39.038Z,3.13
2023-03-31T00:23:41.379Z,3.77
2023-03-31T00:26:43.814Z,3.20
2023-03-31T00:29:45.742Z,3.30
2023-03-31T00:32:47.403Z,3.40
2023-03-31T00:35:51.942Z,3.30
2023-03-31T00:38:54.628Z,3.77
2023-03-31T00:41:56.292Z,3.53
2023-03-31T00:45:19.203Z,3.60
2023-03-31T00:48:21.132Z,3.70
2023-03-31T00:51:23.700Z,3.57
2023-03-31T00:54:27.191Z,2.67
2023-03-31T00:57:32.613Z,2.37
2023-03-31T01:00:34.312Z,2.57
2023-03-31T01:03:36.078Z,2.90
2023-03-31T01:06:42.419Z,2.07
2023-03-31T01:09:47.369Z,2.13
2023-03-31T01:12:51.458Z,2.07
2023-03-31T01:15:53.725Z,2.23
2023-03-31T01:18:57.585Z,2.50
2023-03-31T01:22:17.607Z,3.03
2023-03-31T01:25:50.405Z,2.10
2023-03-31T01:28:55.071Z,2.30
2023-03-31T01:32:29.268Z,1.87
2023-03-31T01:35:51.554Z,1.87
2023-03-31T01:38:53.153Z,1.60
2023-03-31T01:42:14.705Z,2.33
2023-03-31T01:45:27.134Z,2.13
2023-03-31T01:48:34.946Z,2.40
2023-03-31T01:51:36.587Z,1.90
2023-03-31T01:54:54.006Z,2.80
2023-03-31T01:58:28.272Z,1.80
2023-03-31T02:01:56.494Z,2.00
2023-03-31T02:05:00.715Z,2.87
2023-03-31T02:08:06.461Z,2.40
2023-03-31T02:11:08.322Z,2.80
2023-03-31T02:14:11.610Z,2.97
2023-03-31T02:17:18.259Z,3.20
2023-03-31T02:20:21.801Z,2.93
2023-03-31T02:23:26.640Z,3.10
2023-03-31T02:26:31.179Z,3.40
2023-03-31T02:29:32.968Z,3.50
2023-03-31T02:32:36.609Z,3.30
2023-03-31T02:35:38.457Z,3.37
2023-03-31T02:38:44.138Z,3.23
2023-03-31T02:41:45.812Z,2.77
2023-03-31T02:44:47.644Z,3.33
2023-03-31T02:47:50.029Z,2.87
2023-03-31T02:50:54.927Z,2.87
2023-03-31T02:54:10.267Z,3.73
2023-03-31T02:57:27.211Z,3.43
2023-03-31T03:00:29.057Z,4.10
2023-03-31T03:03:33.964Z,4.37
2023-03-31T03:06:43.443Z,5.77
2023-03-31T03:10:01.583Z,4.93
2023-03-31T03:13:09.769Z,4.90
2023-03-31T03:16:18.678Z,8.13
2023-03-31T03:19:21.671Z,7.10
2023-03-31T03:22:23.598Z,5.70
2023-03-31T03:25:25.821Z,6.17
2023-03-31T03:28:27.901Z,6.27
2023-03-31T03:31:30.870Z,5.60
2023-03-31T03:34:32.694Z,5.33
2023-03-31T03:37:34.637Z,5.93
2023-03-31T03:40:36.420Z,5.97
2023-03-31T03:43:38.050Z,6.30
2023-03-31T03:46:39.823Z,6.07
2023-03-31T03:49:41.494Z,6.20
2023-03-31T03:52:43.181Z,6.07
2023-03-31T03:55:45.519Z,5.60
2023-03-31T03:58:47.191Z,6.90
2023-03-31T04:01:49.004Z,8.87
2023-03-31T04:04:50.669Z,9.50
2023-03-31T04:07:52.439Z,6.90
2023-03-31T04:10:54.114Z,6.60
2023-03-31T04:13:55.925Z,7.00
2023-03-31T04:16:58.694Z,6.73
2023-03-31T04:20:02.002Z,9.43
2023-03-31T04:23:05.753Z,10.40
2023-03-31T04:26:09.073Z,11.27
2023-03-31T04:29:12.797Z,10.43
2023-03-31T04:32:15.074Z,9.93
2023-03-31T04:35:20.876Z,10.33
2023-03-31T04:38:23.815Z,13.47
2023-03-31T04:41:27.591Z,17.60
2023-03-31T04:44:29.346Z,19.30
2023-03-31T04:47:31.092Z,15.20
2023-03-31T04:50:32.828Z,17.17
2023-03-31T04:53:34.432Z,17.57
2023-03-31T04:56:36.234Z,15.63
2023-03-31T04:59:37.870Z,16.47
2023-03-31T05:02:39.778Z,14.77
2023-03-31T05:05:41.597Z,15.27
2023-03-31T05:08:43.635Z,14.47
2023-03-31T05:11:45.436Z,15.80
2023-03-31T05:14:47.285Z,15.23
2023-03-31T05:17:49.002Z,15.27
2023-03-31T05:20:50.780Z,15.73
2023-03-31T05:23:53.117Z,14.27
2023-03-31T05:26:54.710Z,13.17
2023-03-31T05:29:56.381Z,13.80
2023-03-31T05:32:58.097Z,15.53
2023-03-31T05:36:00.429Z,15.33
2023-03-31T05:39:02.351Z,17.90
2023-03-31T05:42:05.970Z,13.27
2023-03-31T05:45:09.368Z,28.50
2023-03-31T05:48:11.206Z,17.73
2023-03-31T05:51:12.943Z,17.13
2023-03-31T05:54:14.574Z,17.67
2023-03-31T05:57:16.226Z,16.40
2023-03-31T06:00:18.102Z,10.80
2023-03-31T06:03:19.845Z,14.40
2023-03-31T06:06:21.537Z,17.47
2023-03-31T06:09:23.173Z,17.10
2023-03-31T06:12:24.927Z,18.23
2023-03-31T06:15:26.573Z,19.90
2023-03-31T06:18:29.254Z,23.53
2023-03-31T06:21:31.012Z,22.63
2023-03-31T06:24:32.649Z,22.00
2023-03-31T06:27:34.314Z,22.43
2023-03-31T06:30:36.285Z,21.50
2023-03-31T06:33:38.383Z,19.07
2023-03-31T06:36:40.069Z,20.20
2023-03-31T06:39:42.014Z,22.93
2023-03-31T06:42:44.236Z,24.37
2023-03-31T06:45:45.953Z,26.50
2023-03-31T06:48:47.713Z,27.27
2023-03-31T06:51:49.312Z,27.77
2023-03-31T06:54:51.054Z,22.17
2023-03-31T06:57:52.802Z,23.90
2023-03-31T07:00:54.523Z,25.27
2023-03-31T07:03:56.368Z,25.33
2023-03-31T07:07:01.890Z,23.03
2023-03-31T07:10:03.939Z,20.97
2023-03-31T07:13:05.969Z,21.27
2023-03-31T07:16:09.989Z,17.00
2023-03-31T07:19:11.804Z,8.60
2023-03-31T07:22:14.524Z,8.47
2023-03-31T07:25:17.141Z,11.57
2023-03-31T07:28:18.877Z,8.77
2023-03-31T07:31:20.579Z,12.87
2023-03-31T07:34:22.225Z,10.37
2023-03-31T07:37:23.936Z,9.97
2023-03-31T07:40:26.975Z,8.47
2023-03-31T07:43:28.616Z,7.63
2023-03-31T07:46:30.633Z,10.23
2023-03-31T07:49:32.981Z,9.73
2023-03-31T07:52:34.754Z,17.63
2023-03-31T07:55:36.362Z,10.63
2023-03-31T07:58:38.078Z,10.73
2023-03-31T08:01:39.797Z,12.00
2023-03-31T08:04:44.623Z,22.37
2023-03-31T08:07:47.217Z,27.13
2023-03-31T08:10:48.861Z,28.53
2023-03-31T08:13:50.910Z,29.43
2023-03-31T08:16:55.388Z,30.70
2023-03-31T08:19:57.977Z,25.50
2023-03-31T08:23:01.600Z,23.37
2023-03-31T08:26:09.534Z,23.90
2023-03-31T08:29:11.286Z,25.07
2023-03-31T08:32:12.970Z,30.57
2023-03-31T08:35:14.846Z,35.07
2023-03-31T08:38:16.518Z,24.93
2023-03-31T08:41:21.516Z,32.20
2023-03-31T08:44:38.493Z,31.10
2023-03-31T08:47:40.354Z,19.33
2023-03-31T08:50:45.427Z,13.80
2023-03-31T08:53:53.209Z,14.60
2023-03-31T08:56:55.016Z,16.20
2023-03-31T08:59:58.878Z,9.53
2023-03-31T09:03:05.036Z,7.37
2023-03-31T09:06:12.232Z,12.17
2023-03-31T09:09:34.077Z,10.27
2023-03-31T09:12:43.742Z,6.73
2023-03-31T09:15:50.671Z,6.53
2023-03-31T09:18:53.886Z,6.77
2023-03-31T09:21:56.020Z,5.63
2023-03-31T09:25:06.953Z,12.97
2023-03-31T09:28:15.524Z,7.97
2023-03-31T09:31:19.712Z,6.10
2023-03-31T09:34:27.184Z,6.60
2023-03-31T09:37:31.726Z,5.87
2023-03-31T09:40:34.398Z,5.47
2023-03-31T09:43:36.156Z,5.40
2023-03-31T09:46:38.486Z,4.70
2023-03-31T09:49:41.385Z,5.67
2023-03-31T09:53:00.864Z,5.23
2023-03-31T09:56:03.727Z,5.73
2023-03-31T09:59:05.630Z,7.53
2023-03-31T10:02:23.928Z,5.83
2023-03-31T10:05:33.560Z,4.60
2023-03-31T10:08:53.943Z,5.57
2023-03-31T10:12:02.441Z,5.70
2023-03-31T10:15:17.757Z,6.70
2023-03-31T10:18:20.845Z,5.50
2023-03-31T10:21:24.534Z,5.17
2023-03-31T10:24:27.802Z,5.27
2023-03-31T10:27:31.557Z,4.70
2023-03-31T10:30:38.273Z,5.53
2023-03-31T10:33:42.755Z,5.20
2023-03-31T10:36:48.803Z,4.43
2023-03-31T10:39:57.865Z,4.80
2023-03-31T10:43:19.098Z,4.23
2023-03-31T10:46:21.511Z,6.73
2023-03-31T10:49:23.139Z,5.53
2023-03-31T10:52:25.818Z,5.17
2023-03-31T10:55:30.882Z,9.83
2023-03-31T10:58:32.541Z,6.03
2023-03-31T11:01:50.644Z,6.17
2023-03-31T11:04:52.259Z,7.70
2023-03-31T11:08:20.073Z,6.67
2023-03-31T11:11:32.024Z,5.97
2023-03-31T11:14:33.651Z,7.73
2023-03-31T11:17:47.470Z,7.17
2023-03-31T11:20:58.267Z,6.20
2023-03-31T11:24:09.311Z,6.10
2023-03-31T11:27:19.951Z,7.77
2023-03-31T11:30:24.634Z,4.63
2023-03-31T11:33:35.542Z,6.83
2023-03-31T11:36:51.567Z,5.83
2023-03-31T11:40:12.234Z,5.63
2023-03-31T11:43:32.392Z,6.20
2023-03-31T11:46:34.045Z,4.87
2023-03-31T11:49:39.864Z,4.60
2023-03-31T11:52:48.709Z,5.50
2023-03-31T11:55:52.067Z,5.57
2023-03-31T11:58:56.398Z,5.30
2023-03-31T12:02:04.321Z,5.30
2023-03-31T12:05:06.972Z,5.37
2023-03-31T12:08:11.490Z,5.70
2023-03-31T12:11:15.583Z,5.60
2023-03-31T12:14:35.865Z,6.43
2023-03-31T12:17:38.435Z,6.97
2023-03-31T12:20:42.690Z,6.37
2023-03-31T12:23:44.898Z,5.10
2023-03-31T12:26:53.146Z,4.43
2023-03-31T12:29:54.803Z,4.33
2023-03-31T12:33:03.021Z,4.40
2023-03-31T12:36:17.205Z,3.90
2023-03-31T12:39:22.025Z,3.10
2023-03-31T12:42:52.901Z,4.10
2023-03-31T12:45:54.552Z,3.97
2023-03-31T12:48:56.260Z,3.13
2023-03-31T12:52:16.495Z,4.23
2023-03-31T12:55:36.175Z,3.30
2023-03-31T12:58:42.154Z,3.40
2023-03-31T13:02:02.645Z,3.33
2023-03-31T13:05:22.878Z,3.60
2023-03-31T13:08:51.013Z,4.97
2023-03-31T13:11:52.780Z,3.37
2023-03-31T13:14:59.097Z,4.10
2023-03-31T13:18:02.627Z,4.30
2023-03-31T13:21:05.503Z,3.20
2023-03-31T13:24:07.733Z,3.20
2023-03-31T13:27:30.152Z,3.40
2023-03-31T13:30:41.423Z,3.43
2023-03-31T13:33:44.431Z,3.83
2023-03-31T13:37:09.136Z,3.23
2023-03-31T13:40:29.480Z,3.13
2023-03-31T13:43:37.056Z,3.43
2023-03-31T13:46:48.066Z,2.90
2023-03-31T13:49:49.738Z,3.53
2023-03-31T13:53:03.917Z,3.13
2023-03-31T13:56:17.707Z,5.73
2023-03-31T13:59:41.432Z,3.80
2023-03-31T14:03:01.775Z,5.17
2023-03-31T14:06:18.621Z,3.87
2023-03-31T14:09:32.276Z,5.13
2023-03-31T14:12:38.034Z,3.63
2023-03-31T14:15:42.902Z,3.90
2023-03-31T14:18:49.256Z,4.53
2023-03-31T14:22:09.892Z,3.90
2023-03-31T14:25:20.998Z,4.27
2023-03-31T14:28:29.829Z,3.37
2023-03-31T14:31:45.327Z,4.33
2023-03-31T14:34:53.794Z,3.80
2023-03-31T14:37:56.181Z,3.80
2023-03-31T14:41:01.400Z,3.67
2023-03-31T14:44:04.910Z,3.70
2023-03-31T14:47:06.675Z,6.40
2023-03-31T14:50:18.500Z,3.87
2023-03-31T14:53:23.644Z,4.73
2023-03-31T14:56:33.779Z,5.17
2023-03-31T14:59:35.928Z,4.60
2023-03-31T15:02:40.637Z,3.87
2023-03-31T15:05:43.710Z,4.20
2023-03-31T15:08:45.885Z,4.03
2023-03-31T15:11:48.097Z,5.27
2023-03-31T15:14:51.366Z,8.00
2023-03-31T15:17:54.610Z,4.10
2023-03-31T15:20:56.291Z,3.67
2023-03-31T15:23:58.710Z,4.10
2023-03-31T15:27:03.395Z,4.27
2023-03-31T15:30:09.440Z,6.63
2023-03-31T15:33:19.704Z,5.90
2023-03-31T15:36:22.608Z,5.60
2023-03-31T15:39:28.318Z,5.27
2023-03-31T15:42:30.257Z,4.40
2023-03-31T15:45:39.027Z,5.53
2023-03-31T15:48:51.907Z,5.00
2023-03-31T15:51:54.643Z,10.23
2023-03-31T15:54:56.927Z,6.10
2023-03-31T15:58:00.476Z,6.20
2023-03-31T16:01:05.033Z,5.77
2023-03-31T16:04:08.283Z,5.13
2023-03-31T16:07:16.790Z,4.10
2023-03-31T16:10:21.425Z,5.73
2023-03-31T16:13:23.424Z,6.07
2023-03-31T16:16:27.342Z,9.67
2023-03-31T16:19:31.416Z,5.33
2023-03-31T16:22:37.329Z,5.97
2023-03-31T16:25:39.946Z,7.73
2023-03-31T16:28:41.654Z,6.63
2023-03-31T16:31:43.290Z,8.57
2023-03-31T16:34:55.426Z,8.77
2023-03-31T16:37:57.083Z,157.63
2023-03-31T16:40:58.884Z,159.70
2023-03-31T16:44:01.035Z,328.33
2023-03-31T16:47:02.732Z,53.60
2023-03-31T16:50:07.438Z,19.20
2023-03-31T16:53:09.501Z,60.63
2023-03-31T16:56:12.924Z,21.67
2023-03-31T16:59:14.793Z,39.73
2023-03-31T17:02:16.496Z,30.60
2023-03-31T17:05:18.143Z,27.10
2023-03-31T17:08:20.592Z,19.90
2023-03-31T17:11:22.882Z,23.00
2023-03-31T17:14:24.836Z,21.67
2023-03-31T17:17:26.493Z,17.13
2023-03-31T17:20:28.327Z,17.67
2023-03-31T17:23:30.599Z,21.90
2023-03-31T17:26:32.539Z,28.43
2023-03-31T17:29:34.135Z,32.33
2023-03-31T17:32:35.952Z,29.97
2023-03-31T17:35:38.127Z,46.17
2023-03-31T17:38:40.077Z,30.70
2023-03-31T17:41:42.016Z,28.70
2023-03-31T17:44:43.695Z,26.57
2023-03-31T17:47:46.238Z,25.13
2023-03-31T17:50:48.012Z,23.90
2023-03-31T17:53:49.835Z,20.30
2023-03-31T17:56:51.717Z,22.00
2023-03-31T17:59:53.414Z,16.07
2023-03-31T18:02:55.664Z,16.23
2023-03-31T18:05:57.665Z,12.90
2023-03-31T18:08:59.322Z,17.00
2023-03-31T18:12:01.102Z,14.50
2023-03-31T18:15:05.402Z,13.30
2023-03-31T18:18:07.375Z,12.40
2023-03-31T18:21:10.258Z,12.97
2023-03-31T18:24:13.649Z,15.20
2023-03-31T18:27:15.323Z,17.53
2023-03-31T18:30:17.340Z,20.97
2023-03-31T18:33:20.140Z,15.83
2023-03-31T18:36:23.183Z,18.07
2023-03-31T18:39:25.028Z,16.40
2023-03-31T18:42:26.635Z,15.83
2023-03-31T18:45:28.515Z,11.20
2023-03-31T18:48:30.375Z,13.27
2023-03-31T18:51:33.090Z,11.50
2023-03-31T18:54:34.792Z,12.30
2023-03-31T18:57:36.495Z,12.40
2023-03-31T19:00:38.196Z,12.30
2023-03-31T19:03:40.192Z,10.70
2023-03-31T19:06:41.894Z,10.00
2023-03-31T19:09:43.682Z,13.20
2023-03-31T19:12:48.652Z,14.73
2023-03-31T19:15:50.689Z,9.90
2023-03-31T19:18:52.840Z,10.37
2023-03-31T19:21:54.692Z,10.17
2023-03-31T19:24:56.298Z,8.93
2023-03-31T19:27:57.915Z,9.43
2023-03-31T19:31:02.149Z,7.90
2023-03-31T19:34:08.972Z,8.57
2023-03-31T19:37:11.207Z,8.93
2023-03-31T19:40:13.521Z,10.70
2023-03-31T19:43:20.947Z,10.53
2023-03-31T19:46:22.679Z,9.40
2023-03-31T19:49:24.460Z,8.27
2023-03-31T19:52:26.278Z,9.20
2023-03-31T19:55:28.064Z,8.90
2023-03-31T19:58:30.847Z,8.83
2023-03-31T20:01:32.665Z,10.00
2023-03-31T20:04:34.657Z,10.40
2023-03-31T20:07:36.444Z,11.87
2023-03-31T20:10:38.112Z,12.07
2023-03-31T20:13:40.929Z,12.80
2023-03-31T20:16:42.584Z,12.27
2023-03-31T20:19:45.032Z,12.77
2023-03-31T20:22:46.821Z,16.07
2023-03-31T20:25:48.451Z,15.70
2023-03-31T20:28:50.133Z,16.17
2023-03-31T20:31:51.883Z,14.77
2023-03-31T20:34:54.725Z,13.40
2023-03-31T20:37:56.740Z,11.07
2023-03-31T20:40:58.672Z,13.30
2023-03-31T20:44:00.981Z,13.30
2023-03-31T20:47:02.749Z,13.60
2023-03-31T20:50:04.679Z,11.33
2023-03-31T20:53:07.057Z,12.53
2023-03-31T20:56:09.884Z,10.03
2023-03-31T20:59:12.839Z,10.40
2023-03-31T21:02:15.215Z,10.47
2023-03-31T21:05:18.124Z,11.53
2023-03-31T21:08:19.800Z,11.63
2023-03-31T21:11:22.737Z,10.00
2023-03-31T21:14:24.386Z,11.80
2023-03-31T21:17:26.013Z,11.57
2023-03-31T21:20:27.731Z,10.53
2023-03-31T21:23:30.014Z,11.13
2023-03-31T21:26:31.640Z,10.70
2023-03-31T21:29:33.311Z,9.10
2023-03-31T21:32:35.010Z,8.63
2023-03-31T21:35:37.005Z,8.30
2023-03-31T21:38:39.026Z,10.37
2023-03-31T21:41:41.615Z,9.73
2023-03-31T21:44:43.715Z,8.30
2023-03-31T21:47:45.383Z,10.00
2023-03-31T21:50:47.128Z,9.57
2023-03-31T21:53:49.567Z,10.10
2023-03-31T21:56:51.189Z,9.10
2023-03-31T21:59:52.801Z,7.13
2023-03-31T22:03:02.280Z,6.90
2023-03-31T22:06:16.538Z,9.20
2023-03-31T22:09:18.299Z,9.00
2023-03-31T22:12:19.949Z,9.33
2023-03-31T22:15:21.607Z,8.40
2023-03-31T22:18:23.356Z,9.90
2023-03-31T22:21:26.366Z,8.63
2023-03-31T22:24:28.074Z,9.23
2023-03-31T22:27:29.799Z,8.67
2023-03-31T22:30:31.643Z,9.20
2023-03-31T22:33:33.545Z,8.33
2023-03-31T22:36:35.218Z,9.10
2023-03-31T22:39:36.891Z,9.43
2023-03-31T22:42:38.630Z,8.90
2023-03-31T22:45:40.359Z,8.70
2023-03-31T22:48:42.049Z,8.90
2023-03-31T22:51:45.243Z,8.20
2023-03-31T22:54:47.048Z,9.27
2023-03-31T22:57:48.849Z,8.43
2023-03-31T23:00:57.216Z,9.00
2023-03-31T23:04:00.699Z,9.60
2023-03-31T23:07:02.368Z,11.57
2023-03-31T23:10:04.611Z,10.33
2023-03-31T23:13:07.154Z,12.53
2023-03-31T23:16:10.213Z,8.13
2023-03-31T23:19:12.394Z,8.50
2023-03-31T23:22:14.411Z,8.00
2023-03-31T23:25:16.209Z,7.50
2023-03-31T23:28:17.954Z,8.50
2023-03-31T23:31:21.429Z,9.63
2023-03-31T23:34:23.147Z,7.00
2023-03-31T23:37:24.826Z,9.00
2023-03-31T23:40:26.537Z,9.33
2023-03-31T23:43:28.819Z,7.73
2023-03-31T23:46:31.973Z,7.77
2023-03-31T23:49:33.872Z,8.53
2023-03-31T23:52:36.232Z,8.07
2023-03-31T23:55:38.062Z,8.60
2023-03-31T23:58:40.383Z,7.97
